Terminal Aerodrome Forecast
Issued by NWS

Home | Current Version | Previous Version | Text Only | Print | Product List | Glossary On
Versions: 1 2 3 4 5 6 7 8 9 10 11 12 13 14 15 16 17 18 19 20 21 22 23 24 25 26 27 28 29 30 31 32 33
000
FTUS44 KLIX 260714 AAA
TAFHUM
TAF AMD
KHUM 260714Z 2607/2706 15012KT P6SM BKN022
     FM260800 15010KT P6SM TSRA BKN030CB OVC090
     FM261000 13007KT P6SM BKN030
     FM261500 15010KT P6SM VCTS BKN030CB=

USA.gov is the U.S. government's official web portal to all federal, state and local government web resources and services.